Flight Track Log - Related Links

Times and Time Zones

All times are in EDT time to prevent confusion due to time zone crossing. See the SWA167 flight status page for this flight to view local times or setup timezone preferences in your user account.

Time Position Orientation Groundspeed Altitude Reporting Facility
EDT Latitude Longitude Course Direction KTS MPH feet Rate Location/Type
Fri 11:01:11 PM 29.6286 -95.2611 206° Southwest 147 169 1,200  Level Houston Center
Fri 11:01:46 PM 29.6050 -95.2744 206° Southwest 224 258 2,100 2,658 Climbing Houston Center
Fri 11:02:30 PM 29.5697 -95.3067 218° Southwest 225 259 4,700 3,297 Climbing Houston Center
Fri 11:03:37 PM 29.5183 -95.3633 224° Southwest 245 282 8,200 2,448 Climbing Houston Center
Fri 11:05:00 PM 29.5781 -95.4965 240° Southwest  Level Estimated
Fri 11:05:51 PM 29.6075 -95.5458 240° Southwest 346 398 12,900  Level Houston Center
Fri 11:06:52 PM 29.6583 -95.6503 299° West 371 427 15,900 2,705 Climbing Houston Center
Fri 11:07:53 PM 29.6861 -95.7706 285° West 387 445 18,400 2,410 Climbing Houston Center
Fri 11:08:54 PM 29.7167 -95.8936 286° West 398 458 20,800 2,311 Climbing Houston Center
Fri 11:09:55 PM 29.7492 -96.0264 286° West 411 473 23,100 2,016 Climbing Houston Center
Fri 11:10:56 PM 29.7817 -96.1575 286° West 426 490 24,900 1,918 Climbing Houston Center
Fri 11:11:57 PM 29.8142 -96.2925 286° West 439 505 27,000 1,770 Climbing Houston Center
Fri 11:12:58 PM 29.8481 -96.4292 286° West 446 513 28,500 1,918 Climbing Houston Center
Fri 11:13:59 PM 29.8889 -96.5975 286° West 458 527 30,900 2,410 Climbing Houston Center
Fri 11:15:00 PM 29.9200 -96.7306 285° West 440 506 33,400 2,066 Climbing Houston Center
Fri 11:16:01 PM 29.9503 -96.8597 285° West 424 488 35,100 1,623 Climbing Houston Center
Fri 11:17:02 PM 29.9811 -96.9861 286° West 416 479 36,700 1,426 Climbing Houston Center
Fri 11:18:03 PM 30.0108 -97.1117 285° West 411 473 38,000 639 Climbing Houston Center
Fri 11:19:04 PM 30.0406 -97.2364 285° West 407 468 38,000  Level Houston Center
Fri 11:20:05 PM 30.0703 -97.3622 285° West 408 470 38,000  Level Houston Center
Fri 11:21:06 PM 30.1000 -97.4914 285° West 405 466 38,000  Level Houston Center
Fri 11:22:07 PM 30.1297 -97.6192 285° West 407 468 38,000  Level Houston Center
Fri 11:23:08 PM 30.1808 -97.7369 297° West 411 473 38,000 -49 Level Houston Center
Fri 11:24:09 PM 30.2472 -97.8475 305° West 412 474 37,900  Descending Houston Center
Fri 11:25:10 PM 30.3169 -97.9686 304° West 408 470 38,000 49 Climbing Houston Center
Fri 11:26:11 PM 30.3756 -98.0692 304° West 411 473 38,000  Level Houston Center
Fri 11:27:12 PM 30.4397 -98.1803 304° West 410 472 38,000  Level Houston Center
Fri 11:28:13 PM 30.5033 -98.2922 303° West 410 472 38,000  Level Houston Center
Fri 11:29:14 PM 30.5683 -98.4044 304° West 413 475 38,000  Level Houston Center
Fri 11:30:15 PM 30.6317 -98.5158 303° West 411 473 38,000  Level Houston Center
Fri 11:31:16 PM 30.6956 -98.6258 304° West 407 468 38,000  Level Houston Center
Fri 11:32:17 PM 30.7578 -98.7369 303° West 405 466 38,000  Level Houston Center
Fri 11:33:18 PM 30.8219 -98.8464 304° West 404 465 38,000  Level Houston Center
Fri 11:34:19 PM 30.8942 -98.9761 303° West 404 465 38,000  Level Houston Center
Fri 11:35:19 PM 30.9592 -99.0869 304° West 409 471 38,000  Level Houston Center
Fri 11:36:20 PM 31.0100 -99.1806 302° West 405 466 38,000  Level Houston Center
Fri 11:37:21 PM 31.0717 -99.2900 303° West 405 466 38,000  Level Houston Center
Fri 11:38:22 PM 31.1464 -99.4217 304° West 406 467 38,000  Level Houston Center
Fri 11:39:23 PM 31.2089 -99.5350 303° West 413 475 38,000  Level Houston Center
Fri 11:40:24 PM 31.2714 -99.6458 303° West 412 474 38,000  Level Houston Center
Fri 11:41:24 PM 31.3317 -99.7556 303° West 406 467 38,000  Level Houston Center
Fri 11:42:25 PM 31.3914 -99.8633 303° West 399 459 38,000  Level Houston Center
Fri 11:43:26 PM 31.4514 -99.9725 303° West 399 459 38,000  Level Houston Center
Fri 11:44:27 PM 31.5114 -100.0817 303° West 399 459 38,000  Level Houston Center
Fri 11:45:06 PM 31.5528 -100.1558 303° West 413 475 38,000  Level Fort Worth Center
Fri 11:46:06 PM 31.6111 -100.2625 303° West 408 470 38,000  Level Fort Worth Center
Fri 11:47:06 PM 31.6750 -100.3842 302° West 397 457 38,000  Level Fort Worth Center
Fri 11:48:06 PM 31.7350 -100.4936 303° West 397 457 38,000  Level Fort Worth Center
Fri 11:49:06 PM 31.7947 -100.6056 302° West 397 457 38,000  Level Fort Worth Center
Fri 11:50:06 PM 31.8567 -100.7128 304° West 403 464 38,000  Level Fort Worth Center
Fri 11:51:06 PM 31.9067 -100.8003 304° West 403 464 38,000  Level Fort Worth Center
Fri 11:52:06 PM 31.9658 -100.9247 299° West 403 464 38,000  Level Fort Worth Center
Fri 11:53:06 PM 32.0356 -101.0403 305° West 397 457 38,000  Level Fort Worth Center
Fri 11:54:06 PM 32.0928 -101.1528 301° West 397 457 38,000  Level Fort Worth Center
Fri 11:55:06 PM 32.1522 -101.2608 303° West 397 457 38,000  Level Fort Worth Center
Fri 11:56:06 PM 32.2072 -101.3711 301° West 397 457 38,000  Level Fort Worth Center
Fri 11:57:06 PM 32.2664 -101.4842 302° West 397 457 38,000  Level Fort Worth Center
Fri 11:58:06 PM 32.3061 -101.6017 292° West 391 450 38,000  Level Fort Worth Center
Fri 11:59:07 PM 32.3311 -101.7281 283° West 391 450 38,000  Level Fort Worth Center
Sat 12:00:06 AM 32.3539 -101.8544 282° West 391 450 38,000  Level Fort Worth Center
Sat 12:01:06 AM 32.3786 -101.9836 283° West 397 457 38,000  Level Fort Worth Center
Sat 12:02:06 AM 32.3989 -102.1078 281° West 397 457 38,000  Level Fort Worth Center
Sat 12:03:06 AM 32.4253 -102.2419 283° West 397 457 38,000  Level Fort Worth Center
Sat 12:04:06 AM 32.4494 -102.3711 283° West 404 465 38,000  Level Fort Worth Center
Sat 12:05:06 AM 32.4756 -102.4983 284° West 404 465 38,000  Level Fort Worth Center
Sat 12:06:06 AM 32.4981 -102.6128 283° West 394 453 38,000  Level Fort Worth Center
Sat 12:08:08 AM 32.5786 -102.8378 293° West 398 458 38,000  Level Albuquerque Center
Sat 12:09:09 AM 32.6372 -102.9478 302° West 395 455 38,000  Level Albuquerque Center
Sat 12:10:10 AM 32.7075 -103.0808 302° West 397 457 38,000  Level Albuquerque Center
Sat 12:11:11 AM 32.7478 -103.2042 291° West 400 460 38,000  Level Albuquerque Center
Sat 12:12:12 AM 32.7889 -103.3272 292° West 400 460 38,000  Level Albuquerque Center
Sat 12:13:13 AM 32.8292 -103.4508 291° West 403 464 38,000  Level Albuquerque Center
Sat 12:14:14 AM 32.8714 -103.5778 292° West 410 472 38,000  Level Albuquerque Center
Sat 12:15:15 AM 32.9189 -103.7161 292° West 415 478 38,000  Level Albuquerque Center
Sat 12:16:17 AM 32.9639 -103.8411 293° West 413 475 38,000  Level Albuquerque Center
Sat 12:17:18 AM 33.0047 -103.9667 291° West 406 467 38,000  Level Albuquerque Center
Sat 12:18:19 AM 33.0492 -104.1028 291° West 406 467 38,000  Level Albuquerque Center
Sat 12:19:20 AM 33.0900 -104.2300 291° West 409 471 38,000  Level Albuquerque Center
Sat 12:20:21 AM 33.1303 -104.3567 291° West 407 468 38,000  Level Albuquerque Center
Sat 12:21:22 AM 33.1694 -104.4828 290° West 405 466 38,000  Level Albuquerque Center
Sat 12:22:23 AM 33.2094 -104.6147 290° West 419 482 38,000  Level Albuquerque Center
Sat 12:23:24 AM 33.2525 -104.7414 292° West 409 471 38,000  Level Albuquerque Center
Sat 12:24:25 AM 33.2939 -104.8667 292° West 404 465 38,000  Level Albuquerque Center
Sat 12:25:26 AM 33.3383 -105.0042 291° West 411 473 38,000  Level Albuquerque Center
Sat 12:26:27 AM 33.3781 -105.1292 291° West 405 466 38,000  Level Albuquerque Center
Sat 12:27:28 AM 33.4194 -105.2567 291° West 407 468 38,000  Level Albuquerque Center
Sat 12:28:29 AM 33.4581 -105.3831 290° West 404 465 38,000  Level Albuquerque Center
Sat 12:29:30 AM 33.4969 -105.5089 290° West 403 464 38,000  Level Albuquerque Center
Sat 12:30:31 AM 33.5344 -105.6203 292° West 405 466 38,000 197 Level Albuquerque Center
Sat 12:31:32 AM 33.5739 -105.7453 291° West 405 466 38,400 843 Climbing Albuquerque Center
Sat 12:32:32 AM 33.6208 -105.8961 291° West 404 465 39,700 793 Climbing Albuquerque Center
Sat 12:33:33 AM 33.6569 -106.0172 290° West 397 457 40,000 148 Climbing Albuquerque Center
Sat 12:34:34 AM 33.6947 -106.1389 290° West 394 453 40,000  Level Albuquerque Center
Sat 12:35:35 AM 33.7317 -106.2631 290° West 394 453 40,000  Level Albuquerque Center
Sat 12:36:36 AM 33.7697 -106.3842 291° West 393 452 40,000  Level Albuquerque Center
Sat 12:37:37 AM 33.8067 -106.5086 290° West 395 455 40,000  Level Albuquerque Center
Sat 12:38:38 AM 33.8444 -106.6319 290° West 395 455 40,000  Level Albuquerque Center
Sat 12:39:38 AM 33.8808 -106.7544 290° West 393 452 40,000  Level Albuquerque Center
Sat 12:40:39 AM 33.9175 -106.8739 290° West 388 447 40,000  Level Albuquerque Center
Sat 12:41:40 AM 33.9544 -106.9994 290° West 392 451 40,000  Level Albuquerque Center
Sat 12:42:41 AM 33.9914 -107.1219 290° West 393 452 40,000  Level Albuquerque Center
Sat 12:43:42 AM 34.0278 -107.2464 289° West 394 453 40,000  Level Albuquerque Center
Sat 12:44:42 AM 34.0642 -107.3700 290° West 394 453 40,000  Level Albuquerque Center
Sat 12:45:43 AM 34.1078 -107.5172 290° West 392 451 40,000  Level Albuquerque Center
Sat 12:46:44 AM 34.1436 -107.6392 290° West 390 449 40,000  Level Albuquerque Center
Sat 12:47:45 AM 34.1789 -107.7617 289° West 389 448 40,000  Level Albuquerque Center
Sat 12:48:45 AM 34.2144 -107.8842 289° West 388 447 40,000  Level Albuquerque Center
Sat 12:49:46 AM 34.2506 -108.0075 290° West 390 449 40,000  Level Albuquerque Center
Sat 12:50:47 AM 34.2864 -108.1342 289° West 395 455 40,000  Level Albuquerque Center
Sat 12:51:48 AM 34.3206 -108.2492 290° West 397 457 40,000  Level Albuquerque Center
Sat 12:52:48 AM 34.3567 -108.3739 289° West 395 455 40,000  Level Albuquerque Center
Sat 12:53:49 AM 34.3967 -108.5150 289° West 392 451 40,000  Level Albuquerque Center
Sat 12:54:50 AM 34.4308 -108.6333 289° West 390 449 40,000  Level Albuquerque Center
Sat 12:55:50 AM 34.4703 -108.7733 289° West 391 450 40,000  Level Albuquerque Center
Sat 12:56:51 AM 34.5039 -108.8914 289° West 389 448 40,000  Level Albuquerque Center
Sat 12:57:52 AM 34.5364 -109.0092 289° West 387 445 40,000  Level Albuquerque Center
Sat 12:58:53 AM 34.5756 -109.1508 289° West 391 450 40,000  Level Albuquerque Center
Sat 12:59:53 AM 34.6086 -109.2689 289° West 389 448 40,000  Level Albuquerque Center
Sat 01:00:54 AM 34.6406 -109.3861 288° West 384 442 40,000  Level Albuquerque Center
Sat 01:01:55 AM 34.6789 -109.5244 289° West 385 443 40,000  Level Albuquerque Center
Sat 01:02:55 AM 34.7100 -109.6428 288° West 382 440 40,000  Level Albuquerque Center
Sat 01:03:56 AM 34.7436 -109.7639 289° West 388 447 40,000  Level Albuquerque Center
Sat 01:04:57 AM 34.7811 -109.9031 288° West 387 445 40,000  Level Albuquerque Center
Sat 01:05:57 AM 34.8139 -110.0228 288° West 389 448 40,000  Level Albuquerque Center
Sat 01:06:58 AM 34.8447 -110.1403 288° West 384 442 40,000  Level Albuquerque Center
Sat 01:07:59 AM 34.8789 -110.2642 289° West 393 452 40,000  Level Albuquerque Center
Sat 01:08:59 AM 34.9144 -110.4028 287° West 388 447 40,000  Level Albuquerque Center
Sat 01:10:00 AM 34.9444 -110.5192 287° West 382 440 40,000 -49 Level Albuquerque Center
Sat 01:11:01 AM 34.9742 -110.6356 287° West 378 435 39,900  Descending Albuquerque Center
Sat 01:12:01 AM 35.0058 -110.7589 287° West 377 434 40,000 50 Climbing Albuquerque Center
Sat 01:13:02 AM 35.0364 -110.8792 287° West 376 433 40,000  Level Albuquerque Center
Sat 01:14:03 AM 35.0686 -111.0017 288° West 371 427 40,000  Level Albuquerque Center
Sat 01:15:03 AM 35.0997 -111.1208 288° West 378 435 40,000  Level Albuquerque Center
Sat 01:16:04 AM 35.1317 -111.2422 288° West 380 437 40,000  Level Albuquerque Center
Sat 01:17:05 AM 35.1619 -111.3631 287° West 375 432 40,000  Level Albuquerque Center
Sat 01:18:05 AM 35.1922 -111.4828 287° West 372 428 40,000  Level Albuquerque Center
Sat 01:19:06 AM 35.2292 -111.6303 287° West 377 434 40,000  Level Albuquerque Center
Sat 01:20:06 AM 35.2600 -111.7531 287° West 379 436 40,000  Level Albuquerque Center
Sat 01:21:07 AM 35.2919 -111.8794 287° West 380 437 40,000  Level Albuquerque Center
Sat 01:22:08 AM 35.3236 -112.0017 288° West 381 438 40,000  Level Albuquerque Center
Sat 01:23:08 AM 35.3533 -112.1253 286° West 382 440 40,000  Level Albuquerque Center
Sat 01:24:09 AM 35.3839 -112.2494 287° West 383 441 40,000  Level Albuquerque Center
Sat 01:24:41 AM 35.3967 -112.2994 287° West 384 442 40,000  Level Los Angeles Center
Sat 01:25:42 AM 35.4331 -112.4467 287° West 381 438 40,000  Level Los Angeles Center
Sat 01:26:43 AM 35.4644 -112.5714 287° West 384 442 40,000  Level Los Angeles Center
Sat 01:27:44 AM 35.4939 -112.6956 286° West 379 436 40,000  Level Los Angeles Center
Sat 01:28:45 AM 35.5186 -112.7953 287° West 379 436 40,000  Level Los Angeles Center
Sat 01:29:46 AM 35.5544 -112.9444 286° West 379 436 40,000  Level Los Angeles Center
Sat 01:30:47 AM 35.5853 -113.0808 286° West 371 427 40,000  Level Los Angeles Center
Sat 01:31:48 AM 35.6156 -113.2061 287° West 379 436 40,000  Level Los Angeles Center
Sat 01:32:49 AM 35.6467 -113.3325 287° West 390 449 40,000  Level Los Angeles Center
Sat 01:33:50 AM 35.6747 -113.4575 285° West 386 444 40,000  Level Los Angeles Center
Sat 01:34:53 AM 35.7047 -113.5842 286° West 388 447 40,000  Level Los Angeles Center
Sat 01:35:52 AM 35.7356 -113.7156 286° West 386 444 40,000  Level Los Angeles Center
Sat 01:36:53 AM 35.7644 -113.8422 286° West 384 442 40,000  Level Los Angeles Center
Sat 01:37:54 AM 35.7942 -113.9672 286° West 382 440 40,000  Level Los Angeles Center
Sat 01:38:55 AM 35.8214 -114.0900 285° West 374 430 40,000  Level Los Angeles Center
Sat 01:39:56 AM 35.8503 -114.2133 286° West 374 430 40,000  Level Los Angeles Center
Sat 01:40:57 AM 35.8783 -114.3394 285° West 379 436 40,000  Level Los Angeles Center
Sat 01:41:58 AM 35.9067 -114.4633 286° West 377 434 40,000  Level Los Angeles Center
Sat 01:42:59 AM 35.9344 -114.5864 286° West 373 429 40,000  Level Los Angeles Center
Sat 01:44:00 AM 35.9675 -114.7325 286° West 370 426 40,000  Level Los Angeles Center
Sat 01:45:01 AM 36.0119 -114.8528 295° West 380 437 40,000  Level Los Angeles Center
Sat 01:46:14 AM 36.0533 -114.9728 293° West 381 438 40,000  Level Los Angeles Center
Sat 01:47:16 AM 36.1039 -115.1169 293° West 381 438 40,000  Level Los Angeles Center
Sat 01:48:16 AM 36.1469 -115.2381 294° West 384 442 40,000  Level Los Angeles Center
Sat 01:49:17 AM 36.1897 -115.3600 294° West 386 444 40,000  Level Los Angeles Center
Sat 01:50:18 AM 36.2311 -115.4808 293° West 382 440 40,000  Level Los Angeles Center
Sat 01:51:19 AM 36.2764 -115.6136 293° West 386 444 40,000  Level Los Angeles Center
Sat 01:52:20 AM 36.3167 -115.7361 292° West 388 447 40,000  Level Los Angeles Center
Sat 01:53:21 AM 36.3589 -115.8578 293° West 385 443 40,000  Level Los Angeles Center
Sat 01:54:22 AM 36.4033 -115.9875 293° West 384 442 40,000  Level Los Angeles Center
Sat 01:55:23 AM 36.4453 -116.1089 293° West 382 440 40,000  Level Los Angeles Center
Sat 01:56:24 AM 36.4858 -116.2303 293° West 381 438 40,000  Level Los Angeles Center
Sat 01:57:25 AM 36.5261 -116.3511 293° West 378 435 40,000  Level Los Angeles Center
Sat 01:58:26 AM 36.5681 -116.4728 293° West 381 438 40,000  Level Los Angeles Center
Sat 01:59:27 AM 36.6081 -116.5944 292° West 380 437 40,000  Level Los Angeles Center
Sat 02:00:28 AM 36.6489 -116.7172 293° West 382 440 40,000  Level Los Angeles Center
Sat 02:01:29 AM 36.6894 -116.8406 292° West 384 442 40,000  Level Los Angeles Center
Sat 02:02:30 AM 36.7289 -116.9617 292° West 384 442 40,000  Level Los Angeles Center
Sat 02:03:31 AM 36.7694 -117.0847 292° West 385 443 40,000  Level Los Angeles Center
Sat 02:04:32 AM 36.8111 -117.2136 292° West 388 447 40,000  Level Los Angeles Center
Sat 02:05:32 AM 36.8511 -117.3383 292° West 387 445 40,000  Level Los Angeles Center
Sat 02:06:33 AM 36.8914 -117.4636 292° West 387 445 40,000  Level Los Angeles Center
Sat 02:07:34 AM 36.9319 -117.5892 292° West 388 447 40,000  Level Los Angeles Center
Sat 02:08:35 AM 36.9719 -117.7150 292° West 389 448 40,000  Level Los Angeles Center
Sat 02:09:36 AM 37.0125 -117.8411 292° West 390 449 40,000  Level Los Angeles Center
Sat 02:10:37 AM 37.0525 -117.9681 292° West 391 450 40,000  Level Los Angeles Center
Sat 02:11:38 AM 37.0925 -118.0956 292° West 393 452 40,000  Level Los Angeles Center
Sat 02:12:39 AM 37.1406 -118.2497 291° West 396 456 40,000  Level Los Angeles Center
Sat 02:13:40 AM 37.1814 -118.3786 292° West 397 457 40,000  Level Los Angeles Center
Sat 02:14:41 AM 37.2208 -118.5061 291° West 393 452 40,000  Level Los Angeles Center
Sat 02:15:42 AM 37.2611 -118.6344 292° West 395 455 40,000  Level Los Angeles Center
Sat 02:16:43 AM 37.3000 -118.7639 291° West 396 456 40,000  Level Los Angeles Center
Sat 02:17:44 AM 37.3414 -118.8925 292° West 395 455 40,000  Level Los Angeles Center
Sat 02:18:44 AM 37.3808 -119.0211 291° West 395 455 40,000  Level Los Angeles Center
Sat 02:20:03 AM 37.4253 -119.1772 290° West 393 452 40,000  Level Oakland Center
Sat 02:21:04 AM 37.4633 -119.3053 291° West 392 451 40,000  Level Oakland Center
Sat 02:22:04 AM 37.5006 -119.4325 290° West 390 449 40,000  Level Oakland Center
Sat 02:23:05 AM 37.5406 -119.5633 291° West 393 452 40,000 -1,041 Level Oakland Center
Sat 02:24:05 AM 37.5786 -119.6889 291° West 385 443 37,900 -2,281 Descending Oakland Center
Sat 02:25:06 AM 37.6147 -119.8139 290° West 380 437 35,400 -2,164 Descending Oakland Center
Sat 02:26:07 AM 37.6511 -119.9367 291° West 374 430 33,500 -2,083 Descending Oakland Center
Sat 02:27:07 AM 37.6933 -120.0794 291° West 364 419 31,200 -2,083 Descending Oakland Center
Sat 02:28:08 AM 37.7131 -120.2036 281° West 362 417 29,300 -1,934 Descending Oakland Center
Sat 02:29:08 AM 37.7289 -120.3250 279° West 352 405 27,300 -1,934 Descending Oakland Center
Sat 02:30:09 AM 37.7436 -120.4442 279° West 344 396 25,400 -1,672 Descending Oakland Center
Sat 02:31:10 AM 37.7528 -120.5617 276° West 338 389 23,900 -1,355 Descending Oakland Center
Sat 02:31:42 AM 37.7500 -120.6333 267° West 343 395 23,300 -1,256 Descending Northern Cal TRACON
Sat 02:32:36 AM 37.7333 -120.7333 258° West 337 388 22,100 -1,526 Descending Northern Cal TRACON
Sat 02:33:36 AM 37.7333 -120.8500 270° West 327 376 20,400 -1,750 Descending Northern Cal TRACON
Sat 02:34:36 AM 37.7167 -120.9667 260° West 319 367 18,600 -1,750 Descending Northern Cal TRACON
Sat 02:35:36 AM 37.7000 -121.0667 258° West 315 362 16,900 -1,350 Descending Northern Cal TRACON
Sat 02:36:36 AM 37.7000 -121.1667 270° West 302 348 15,900 -1,200 Descending Northern Cal TRACON
Sat 02:37:36 AM 37.6833 -121.2667 258° West 281 323 14,500 -1,429 Descending Northern Cal TRACON
Sat 02:38:42 AM 37.6833 -121.3667 270° West 274 315 12,900 -1,476 Descending Northern Cal TRACON
Sat 02:39:42 AM 37.6667 -121.4667 258° West 274 315 11,400 -1,600 Descending Northern Cal TRACON
Sat 02:40:42 AM 37.6667 -121.5667 270° West 280 322 9,700 -1,500 Descending Northern Cal TRACON
Sat 02:41:42 AM 37.6500 -121.6500 256° West 275 316 8,400 -1,526 Descending Northern Cal TRACON
Sat 02:42:36 AM 37.6333 -121.7500 258° West 280 322 6,800 -1,526 Descending Northern Cal TRACON
Sat 02:43:36 AM 37.6000 -121.8333 243° Southwest 281 323 5,500 -1,150 Descending Northern Cal TRACON
Sat 02:44:36 AM 37.6000 -121.9333 270° West 257 296 4,500 -750 Descending Northern Cal TRACON
Sat 02:45:36 AM 37.6000 -122.0000 270° West 209 241 4,000 -667 Descending Northern Cal TRACON
Sat 02:46:42 AM 37.6000 -122.0667 270° West 189 217 3,100 -1,000 Descending Northern Cal TRACON
Sat 02:47:42 AM 37.6333 -122.1167 310° West 167 192 1,900 -1,000 Descending Northern Cal TRACON
Sat 02:48:36 AM 37.6667 -122.1500 322° Northwest 138 159 1,200 -700 Descending Northern Cal TRACON
Sat 02:49:42 AM 37.6833 -122.1833 302° West 130 150 500 -579 Descending Northern Cal TRACON
Sat 02:50:30 AM 37.7000 -122.2167 302° West 128 147 100 -500 Descending Northern Cal TRACON
Sat 02:52:00 AM 37.7167 -122.2167 270° West  Level FlightAware Approximate
Sat 02:59:00 AM 37.7213 -122.2207 270° West  Level Estimated

Login

Don't have an account? Register now (free) for customized features, flight alerts, and more!